Time;durP1;ratioP1;P1;durP2;ratioP2;P2;SDS_P1;SDS_P2;PMS_P1;PMS_P2;Temp;Humidity;BMP_temperature;BMP_pressure;BME280_temperature;BME280_humidity;BME280_pressure;Samples;Min_cycle;Max_cycle;Signal;HPM_P1;HPM_P2
2022/03/28 00:01:35;;;;;;;19.55;11.45;;;9.30;99.90;;;;;;5079442;28;20024;-66
2022/03/28 00:04:01;;;;;;;20.45;12.30;;;9.30;99.90;;;;;;5079520;28;20123;-66
2022/03/28 00:06:27;;;;;;;20.17;11.20;;;9.30;99.90;;;;;;5078753;28;20068;-66
2022/03/28 00:08:53;;;;;;;20.42;11.45;;;9.20;99.90;;;;;;5079355;28;20307;-66
2022/03/28 00:11:19;;;;;;;20.92;11.88;;;9.30;99.90;;;;;;5079578;28;20085;-66
2022/03/28 00:13:46;;;;;;;21.48;12.52;;;9.30;99.90;;;;;;5079245;28;20043;-65
2022/03/28 00:16:12;;;;;;;21.75;12.57;;;9.20;99.90;;;;;;5079273;28;20173;-65
2022/03/28 00:18:39;;;;;;;20.70;12.88;;;9.20;99.90;;;;;;5078511;28;20284;-65
2022/03/28 00:21:05;;;;;;;25.67;12.90;;;9.10;99.90;;;;;;5079098;28;20031;-65
2022/03/28 00:23:32;;;;;;;24.35;12.73;;;9.10;99.90;;;;;;5078330;28;20029;-64
2022/03/28 00:25:59;;;;;;;24.17;12.20;;;9.10;99.90;;;;;;5062139;28;20408;-65
2022/03/28 00:28:25;;;;;;;20.80;11.40;;;9.00;99.90;;;;;;5078259;28;20039;-65
2022/03/28 00:30:51;;;;;;;22.58;11.38;;;9.00;99.90;;;;;;5078076;28;20032;-65
2022/03/28 00:33:18;;;;;;;20.52;11.52;;;9.00;99.90;;;;;;5078218;28;20039;-65
2022/03/28 00:35:43;;;;;;;20.65;11.27;;;8.90;99.90;;;;;;5078350;28;20029;-65
2022/03/28 00:38:11;;;;;;;25.70;11.70;;;8.90;99.90;;;;;;5078351;28;20363;-65
2022/03/28 00:40:37;;;;;;;29.13;13.05;;;9.00;99.90;;;;;;5078614;28;20052;-65
2022/03/28 00:43:06;;;;;;;25.05;12.80;;;9.00;99.90;;;;;;5077966;28;20051;-64
2022/03/28 00:45:34;;;;;;;22.42;11.63;;;8.80;99.90;;;;;;5078642;28;20362;-65
2022/03/28 00:48:01;;;;;;;21.63;10.82;;;8.80;99.90;;;;;;5078564;28;20029;-65
2022/03/28 00:50:28;;;;;;;22.33;11.35;;;8.80;99.90;;;;;;5077894;28;20099;-66
2022/03/28 00:52:54;;;;;;;23.73;11.43;;;8.80;99.90;;;;;;5077746;28;20086;-66
2022/03/28 00:55:21;;;;;;;22.92;11.15;;;8.80;99.90;;;;;;5077673;28;20028;-66
2022/03/28 00:57:47;;;;;;;22.60;10.20;;;8.70;99.90;;;;;;5077725;28;20028;-65
2022/03/28 01:00:14;;;;;;;22.50;11.10;;;8.70;99.90;;;;;;5077932;28;20412;-65
2022/03/28 01:02:40;;;;;;;23.17;10.45;;;8.70;99.90;;;;;;5078358;28;20047;-65
2022/03/28 01:05:06;;;;;;;18.88;10.40;;;8.80;99.90;;;;;;5078353;28;20028;-65
2022/03/28 01:07:32;;;;;;;22.05;10.80;;;8.70;99.90;;;;;;5078239;28;20127;-65
2022/03/28 01:09:59;;;;;;;22.45;10.65;;;8.60;99.90;;;;;;5078232;28;20448;-66
2022/03/28 01:12:32;;;;;;;18.05;9.93;;;8.60;99.90;;;;;;5077414;28;20036;-65
2022/03/28 01:14:59;;;;;;;19.85;10.27;;;8.60;99.90;;;;;;5078087;28;20044;-65
2022/03/28 01:20:11;;;;;;;26.88;10.27;;;8.50;99.90;;;;;;5077239;28;20308;-65
2022/03/28 01:22:37;;;;;;;18.42;10.05;;;8.50;99.90;;;;;;5077886;28;20028;-65
2022/03/28 01:25:05;;;;;;;20.65;9.90;;;8.50;99.90;;;;;;5077961;28;20029;-65
2022/03/28 01:27:32;;;;;;;19.63;10.00;;;8.50;99.90;;;;;;5077911;28;20039;-65
2022/03/28 01:29:58;;;;;;;19.33;10.23;;;8.40;99.90;;;;;;5077786;28;20360;-65
2022/03/28 01:32:24;;;;;;;20.02;10.68;;;8.40;99.90;;;;;;5077715;28;20106;-65
2022/03/28 01:34:51;;;;;;;19.13;9.55;;;8.40;99.90;;;;;;5077649;28;20388;-65
2022/03/28 01:37:17;;;;;;;19.08;9.57;;;8.40;99.90;;;;;;5077636;28;20407;-65
2022/03/28 01:39:43;;;;;;;18.70;9.63;;;8.40;99.90;;;;;;5076921;28;20053;-64
2022/03/28 01:42:08;;;;;;;21.10;10.70;;;8.30;99.90;;;;;;5076520;28;20029;-64
2022/03/28 01:44:34;;;;;;;19.92;9.88;;;8.20;99.90;;;;;;5077606;28;20036;-65
2022/03/28 01:47:00;;;;;;;23.02;10.20;;;8.20;99.90;;;;;;5076818;28;20025;-65
2022/03/28 01:49:26;;;;;;;17.80;10.25;;;8.20;99.90;;;;;;5076749;28;20047;-65
2022/03/28 01:51:52;;;;;;;18.27;10.50;;;8.20;99.90;;;;;;5077325;28;20359;-64
2022/03/28 01:54:18;;;;;;;18.90;9.45;;;8.20;99.90;;;;;;5076587;28;20346;-65
2022/03/28 01:56:44;;;;;;;20.02;9.52;;;8.20;99.90;;;;;;5060406;28;20036;-65
2022/03/28 01:59:11;;;;;;;21.38;9.90;;;8.20;99.90;;;;;;5077286;28;20020;-65
2022/03/28 02:01:37;;;;;;;20.33;9.55;;;8.20;99.90;;;;;;5076905;28;20032;-65
2022/03/28 02:04:04;;;;;;;19.73;9.90;;;8.20;99.90;;;;;;5077166;28;20327;-65
2022/03/28 02:06:34;;;;;;;18.83;9.52;;;8.20;99.90;;;;;;5077619;28;20021;-66
2022/03/28 02:08:59;;;;;;;23.48;10.50;;;8.20;99.90;;;;;;5077102;28;20032;-66
2022/03/28 02:11:25;;;;;;;19.95;9.73;;;8.00;99.90;;;;;;5076607;28;20404;-65
2022/03/28 02:13:51;;;;;;;20.33;10.13;;;8.00;99.90;;;;;;5077058;28;20037;-65
2022/03/28 02:16:17;;;;;;;19.70;9.90;;;8.10;99.90;;;;;;5076408;28;20107;-65
2022/03/28 02:18:43;;;;;;;20.63;9.60;;;8.10;99.90;;;;;;5060025;28;20058;-65
2022/03/28 02:21:09;;;;;;;23.95;10.30;;;8.00;99.90;;;;;;5076203;28;20418;-65
2022/03/28 02:23:35;;;;;;;18.30;8.63;;;8.00;99.90;;;;;;5076945;28;20124;-64
2022/03/28 02:26:02;;;;;;;22.33;10.07;;;8.10;99.90;;;;;;5076270;28;20170;-64
2022/03/28 02:28:29;;;;;;;18.58;9.52;;;8.10;99.90;;;;;;5077164;28;20081;-65
2022/03/28 02:30:55;;;;;;;24.52;9.40;;;8.00;99.90;;;;;;5076892;28;20036;-65
2022/03/28 02:33:22;;;;;;;19.88;9.98;;;7.90;99.90;;;;;;5076875;28;20052;-65
2022/03/28 02:35:48;;;;;;;20.70;9.45;;;7.90;99.90;;;;;;5076845;28;20028;-65
2022/03/28 02:38:14;;;;;;;18.00;10.00;;;7.90;99.90;;;;;;5076071;28;20107;-65
2022/03/28 02:40:40;;;;;;;18.73;9.52;;;8.00;99.90;;;;;;5075921;28;20055;-65
2022/03/28 02:43:06;;;;;;;21.98;9.98;;;7.90;99.90;;;;;;5077074;28;20058;-66
2022/03/28 02:45:34;;;;;;;22.83;10.18;;;7.90;99.90;;;;;;5076648;28;20093;-65
2022/03/28 02:48:01;;;;;;;18.35;9.48;;;7.90;99.90;;;;;;5076044;28;20060;-65
2022/03/28 02:50:31;;;;;;;22.17;9.52;;;7.90;99.90;;;;;;5075967;28;20020;-65
2022/03/28 02:52:57;;;;;;;21.42;10.32;;;7.90;99.90;;;;;;5076178;28;20093;-65
2022/03/28 02:55:23;;;;;;;18.27;9.40;;;7.80;99.90;;;;;;5080769;28;20028;-65
2022/03/28 02:57:49;;;;;;;20.27;9.50;;;7.80;99.90;;;;;;5080037;28;20021;-65
2022/03/28 03:00:15;;;;;;;19.48;8.65;;;7.80;99.90;;;;;;5080710;28;20314;-65
2022/03/28 03:02:43;;;;;;;20.42;9.20;;;7.80;99.90;;;;;;5079964;28;20032;-65
2022/03/28 03:05:10;;;;;;;27.33;8.68;;;7.90;99.90;;;;;;5080660;28;20048;-65
2022/03/28 03:07:36;;;;;;;21.60;9.50;;;7.80;99.90;;;;;;5079765;28;20029;-65
2022/03/28 03:10:03;;;;;;;25.40;9.65;;;7.70;99.90;;;;;;5080570;28;20129;-64
2022/03/28 03:12:29;;;;;;;21.95;9.35;;;7.60;99.90;;;;;;5079612;28;20028;-65
2022/03/28 03:14:54;;;;;;;20.35;9.18;;;7.60;99.90;;;;;;5079702;28;20097;-65
2022/03/28 03:17:20;;;;;;;18.55;8.68;;;7.60;99.90;;;;;;5080482;28;20116;-65
2022/03/28 03:19:46;;;;;;;22.63;8.65;;;7.60;99.90;;;;;;5080565;28;20394;-65
2022/03/28 03:22:16;;;;;;;20.27;9.02;;;7.60;99.90;;;;;;5079566;28;20074;-65
2022/03/28 03:24:44;;;;;;;21.65;9.25;;;7.60;99.90;;;;;;5079504;28;20068;-65
2022/03/28 03:27:10;;;;;;;21.05;9.13;;;7.50;99.90;;;;;;5080328;28;20107;-65
2022/03/28 03:29:37;;;;;;;22.55;9.18;;;7.50;99.90;;;;;;5080164;28;20174;-65
2022/03/28 03:32:04;;;;;;;21.15;9.88;;;7.50;99.90;;;;;;5080132;28;20493;-65
2022/03/28 03:34:32;;;;;;;21.58;9.73;;;7.60;99.90;;;;;;5079988;28;20111;-65
2022/03/28 03:36:57;;;;;;;18.02;9.07;;;7.60;99.90;;;;;;5080007;28;20031;-65
2022/03/28 03:39:25;;;;;;;23.27;10.15;;;7.50;99.90;;;;;;5079849;28;20048;-65
2022/03/28 03:41:51;;;;;;;21.92;9.55;;;7.50;99.90;;;;;;5079892;28;20028;-66
2022/03/28 03:44:18;;;;;;;25.13;9.98;;;7.50;99.90;;;;;;5079882;28;20044;-65
2022/03/28 03:46:43;;;;;;;15.85;8.85;;;7.50;99.90;;;;;;5079847;28;20350;-66
2022/03/28 03:49:09;;;;;;;21.13;8.73;;;7.50;99.90;;;;;;5079791;28;20036;-65
2022/03/28 03:51:36;;;;;;;23.27;9.63;;;7.40;99.90;;;;;;5079734;28;20250;-66
2022/03/28 03:54:02;;;;;;;20.98;8.98;;;7.40;99.90;;;;;;5079746;28;20040;-65
2022/03/28 03:56:28;;;;;;;21.70;9.35;;;7.40;99.90;;;;;;5078925;28;20112;-66
2022/03/28 03:58:55;;;;;;;27.98;10.23;;;7.40;99.90;;;;;;5079645;28;20060;-66
2022/03/28 04:01:22;;;;;;;20.50;9.40;;;7.40;99.90;;;;;;5078951;28;20107;-66
2022/03/28 04:03:48;;;;;;;19.95;8.82;;;7.30;99.90;;;;;;5078813;28;20028;-66
2022/03/28 04:06:14;;;;;;;24.17;9.23;;;7.30;99.90;;;;;;5078093;28;20024;-65
2022/03/28 04:08:40;;;;;;;20.60;9.07;;;7.30;99.90;;;;;;5079444;28;20044;-65
2022/03/28 04:11:06;;;;;;;19.25;9.07;;;7.40;99.90;;;;;;5079361;28;20300;-65
2022/03/28 04:13:35;;;;;;;19.90;9.13;;;7.20;99.90;;;;;;5079346;28;20032;-64
2022/03/28 04:16:02;;;;;;;17.45;9.40;;;7.10;99.90;;;;;;5079206;28;20051;-64
2022/03/28 04:18:28;;;;;;;22.23;8.98;;;7.10;99.90;;;;;;5078845;28;20028;-64
2022/03/28 04:20:55;;;;;;;19.02;8.85;;;7.10;99.90;;;;;;5078789;28;20033;-64
2022/03/28 04:23:22;;;;;;;17.10;8.43;;;7.20;99.90;;;;;;5078510;28;20288;-64
2022/03/28 04:25:49;;;;;;;27.13;9.23;;;7.10;99.90;;;;;;5078326;28;20024;-64
2022/03/28 04:28:14;;;;;;;25.08;9.15;;;7.20;99.90;;;;;;5078290;28;20043;-65
2022/03/28 04:30:41;;;;;;;25.88;9.25;;;7.20;99.90;;;;;;5079124;28;20028;-66
2022/03/28 04:33:09;;;;;;;21.88;8.90;;;7.20;99.90;;;;;;5078257;28;20032;-64
2022/03/28 04:35:36;;;;;;;20.75;9.43;;;7.20;99.90;;;;;;5078154;28;20041;-64
2022/03/28 04:38:05;;;;;;;21.10;8.60;;;7.20;99.90;;;;;;5062016;28;20116;-64
2022/03/28 04:40:33;;;;;;;21.95;8.82;;;7.10;99.90;;;;;;5078719;28;20041;-64
2022/03/28 04:43:00;;;;;;;17.65;8.45;;;7.10;99.90;;;;;;5077963;28;20037;-64
2022/03/28 04:45:27;;;;;;;22.67;9.05;;;7.00;99.90;;;;;;5078682;28;20407;-64
2022/03/28 04:47:53;;;;;;;19.50;8.50;;;7.00;99.90;;;;;;5078579;28;20059;-64
2022/03/28 04:50:19;;;;;;;27.17;9.52;;;7.00;99.90;;;;;;5078672;28;20392;-64
2022/03/28 04:52:44;;;;;;;21.33;8.27;;;7.00;99.90;;;;;;5077798;28;20032;-65
2022/03/28 04:55:11;;;;;;;20.23;8.80;;;7.00;99.90;;;;;;5077844;28;20403;-65
2022/03/28 04:57:37;;;;;;;27.00;9.20;;;7.00;99.90;;;;;;5078552;28;20028;-63
2022/03/28 05:00:06;;;;;;;20.35;8.95;;;6.90;99.90;;;;;;5078475;28;20040;-65
2022/03/28 05:02:34;;;;;;;29.70;9.32;;;6.90;99.90;;;;;;5078362;28;20198;-65
2022/03/28 05:05:00;;;;;;;18.58;8.80;;;6.90;99.90;;;;;;5077663;28;20064;-65
2022/03/28 05:07:32;;;;;;;28.45;9.32;;;6.90;99.90;;;;;;5077594;28;20033;-65
2022/03/28 05:09:59;;;;;;;23.85;9.40;;;6.80;99.90;;;;;;5077746;28;20333;-65
2022/03/28 05:12:25;;;;;;;26.02;9.15;;;6.80;99.90;;;;;;5077581;28;20055;-65
2022/03/28 05:14:52;;;;;;;21.60;8.98;;;6.70;99.90;;;;;;5078064;28;20032;-65
2022/03/28 05:17:22;;;;;;;17.17;8.77;;;6.70;99.90;;;;;;5076588;28;20032;-66
2022/03/28 05:19:49;;;;;;;25.25;9.50;;;6.80;99.90;;;;;;5060732;28;20422;-65
2022/03/28 05:22:15;;;;;;;21.20;9.27;;;6.80;99.90;;;;;;5060510;28;20384;-65
2022/03/28 05:24:41;;;;;;;25.35;9.55;;;6.70;99.90;;;;;;5077882;28;20028;-65
2022/03/28 05:27:07;;;;;;;23.85;8.70;;;6.80;99.90;;;;;;5077308;28;20098;-66
2022/03/28 05:29:33;;;;;;;23.27;9.13;;;6.70;99.90;;;;;;5076964;28;20115;-65
2022/03/28 05:31:59;;;;;;;25.20;9.60;;;6.80;99.90;;;;;;5060161;28;20037;-64
2022/03/28 05:34:25;;;;;;;22.63;9.38;;;6.80;99.90;;;;;;5076677;28;20036;-64
2022/03/28 05:36:51;;;;;;;25.98;9.93;;;6.70;99.90;;;;;;5077621;28;20024;-64
2022/03/28 05:39:17;;;;;;;23.92;9.63;;;6.80;99.90;;;;;;5060060;28;20404;-64
2022/03/28 05:41:43;;;;;;;20.90;9.07;;;6.90;99.90;;;;;;5077379;28;20094;-65
2022/03/28 05:44:09;;;;;;;24.83;9.73;;;6.80;99.90;;;;;;5077505;28;20033;-65
2022/03/28 05:46:35;;;;;;;20.65;8.82;;;6.80;99.90;;;;;;5044168;28;20036;-65
2022/03/28 05:49:01;;;;;;;26.85;10.55;;;6.90;99.90;;;;;;5077430;28;20296;-65
2022/03/28 05:51:26;;;;;;;22.83;9.88;;;6.90;99.90;;;;;;5076728;28;20024;-65
2022/03/28 05:53:52;;;;;;;25.63;10.00;;;6.90;99.90;;;;;;5077558;28;20112;-65
2022/03/28 05:56:18;;;;;;;22.35;9.63;;;7.00;99.90;;;;;;5076594;28;20036;-65
2022/03/28 05:58:44;;;;;;;24.13;10.52;;;7.00;99.90;;;;;;5077522;28;20028;-65
2022/03/28 06:01:10;;;;;;;28.60;10.15;;;7.00;99.90;;;;;;5076548;28;20040;-65
2022/03/28 06:03:37;;;;;;;23.95;9.75;;;7.00;99.90;;;;;;5076536;28;20438;-65
2022/03/28 06:06:05;;;;;;;21.83;9.88;;;7.00;99.90;;;;;;5077194;28;20074;-65
2022/03/28 06:08:32;;;;;;;22.40;9.77;;;7.00;99.90;;;;;;5077172;28;20321;-65
2022/03/28 06:10:57;;;;;;;22.73;9.52;;;7.10;99.90;;;;;;5077481;28;20028;-65
2022/03/28 06:13:23;;;;;;;23.77;10.05;;;7.10;99.90;;;;;;5076784;28;20274;-65
2022/03/28 06:15:49;;;;;;;20.00;9.90;;;7.10;99.90;;;;;;5076219;28;20308;-64
2022/03/28 06:18:15;;;;;;;19.10;9.57;;;7.20;99.90;;;;;;5077041;28;20143;-66
2022/03/28 06:20:41;;;;;;;23.98;10.25;;;7.20;99.90;;;;;;5076325;28;20405;-66
2022/03/28 06:23:09;;;;;;;17.20;6.95;;;7.30;99.90;;;;;;5077017;28;20028;-64
2022/03/28 06:25:35;;;;;;;21.38;9.98;;;8.40;99.90;;;;;;5059488;28;20392;-65
2022/03/28 06:28:01;;;;;;;28.45;10.27;;;8.30;99.90;;;;;;5077205;28;20061;-65
2022/03/28 06:30:27;;;;;;;25.15;10.63;;;8.20;99.90;;;;;;5059719;28;20033;-65
2022/03/28 06:32:53;;;;;;;22.13;10.02;;;8.10;99.90;;;;;;5042930;28;20418;-65
2022/03/28 06:35:20;;;;;;;25.25;10.20;;;8.10;99.90;;;;;;5076087;28;20036;-64
2022/03/28 06:37:50;;;;;;;27.67;12.07;;;8.00;99.90;;;;;;5076104;28;20078;-64
2022/03/28 06:40:17;;;;;;;31.55;12.75;;;8.00;99.90;;;;;;5076140;28;20105;-65
2022/03/28 06:42:43;;;;;;;29.05;12.23;;;8.30;99.90;;;;;;5076091;28;20124;-65
2022/03/28 06:45:10;;;;;;;26.65;11.80;;;8.40;99.90;;;;;;5076760;28;20058;-64
2022/03/28 06:47:37;;;;;;;29.35;10.73;;;8.40;99.90;;;;;;5076614;28;20041;-65
2022/03/28 06:50:05;;;;;;;26.85;12.63;;;8.50;99.90;;;;;;5059327;28;20036;-64
2022/03/28 06:52:35;;;;;;;23.40;12.25;;;8.50;99.90;;;;;;5076013;28;20056;-65
2022/03/28 06:55:02;;;;;;;23.83;10.88;;;8.50;99.90;;;;;;5077435;28;20052;-65
2022/03/28 06:57:27;;;;;;;30.33;11.35;;;8.70;99.90;;;;;;5075956;28;20111;-65
2022/03/28 06:59:53;;;;;;;40.45;15.07;;;8.70;99.90;;;;;;5076652;28;20116;-65
2022/03/28 07:02:19;;;;;;;33.53;12.30;;;8.70;99.90;;;;;;5076564;28;20029;-65
2022/03/28 07:04:45;;;;;;;33.58;14.25;;;8.80;99.90;;;;;;5076533;28;20043;-64
2022/03/28 07:07:11;;;;;;;34.58;15.32;;;8.90;99.90;;;;;;5076629;28;20123;-64
2022/03/28 07:09:38;;;;;;;31.95;11.80;;;8.90;99.90;;;;;;5076567;28;20094;-64
2022/03/28 07:12:05;;;;;;;29.17;12.02;;;8.90;99.90;;;;;;5076779;28;20120;-64
2022/03/28 07:14:32;;;;;;;25.35;11.23;;;8.80;99.90;;;;;;5075823;28;20036;-65
2022/03/28 07:16:59;;;;;;;32.08;10.73;;;8.80;99.90;;;;;;5076530;28;20043;-64
2022/03/28 07:19:26;;;;;;;24.88;10.82;;;8.90;99.90;;;;;;5076478;28;20064;-64
2022/03/28 07:21:52;;;;;;;24.73;10.98;;;9.10;99.90;;;;;;5076669;28;20024;-64
2022/03/28 07:24:20;;;;;;;21.15;10.73;;;9.20;99.90;;;;;;5075638;28;20039;-64
2022/03/28 07:26:48;;;;;;;29.35;11.98;;;9.30;99.90;;;;;;5076310;28;20040;-64
2022/03/28 07:29:17;;;;;;;33.40;12.52;;;9.40;99.90;;;;;;5076388;28;20032;-65
2022/03/28 07:31:47;;;;;;;29.70;11.80;;;9.50;99.90;;;;;;5076326;28;20032;-64
2022/03/28 07:37:03;;;;;;;35.03;11.63;;;9.70;99.90;;;;;;5075454;28;20059;-65
2022/03/28 07:39:29;;;;;;;33.33;11.68;;;9.60;99.90;;;;;;5076149;28;20040;-63
2022/03/28 07:41:55;;;;;;;28.90;12.43;;;9.60;99.90;;;;;;5079417;28;20076;-64
2022/03/28 07:44:22;;;;;;;24.67;11.77;;;9.70;99.90;;;;;;5080071;28;20036;-63
2022/03/28 07:46:47;;;;;;;23.85;11.77;;;9.90;99.90;;;;;;5079187;28;20064;-64
2022/03/28 07:49:16;;;;;;;26.85;12.55;;;10.00;99.90;;;;;;5079323;28;20407;-64
2022/03/28 07:51:42;;;;;;;26.05;12.23;;;10.20;99.90;;;;;;5079674;28;20078;-65
2022/03/28 07:54:09;;;;;;;27.67;12.57;;;10.20;99.90;;;;;;5078806;28;20182;-65
2022/03/28 07:56:36;;;;;;;29.30;12.48;;;10.20;99.90;;;;;;5079156;28;20032;-65
2022/03/28 07:59:01;;;;;;;27.00;13.20;;;10.20;99.90;;;;;;5079544;28;20033;-64
2022/03/28 08:01:27;;;;;;;29.77;12.45;;;10.20;99.90;;;;;;5080083;28;20270;-65
2022/03/28 08:03:53;;;;;;;27.23;13.02;;;10.40;99.90;;;;;;5079480;28;20025;-64
2022/03/28 08:06:19;;;;;;;24.65;12.93;;;10.60;99.90;;;;;;5079662;28;20036;-65
2022/03/28 08:08:45;;;;;;;26.92;12.43;;;10.70;99.90;;;;;;5079362;28;20037;-64
2022/03/28 08:11:11;;;;;;;29.38;14.00;;;10.80;99.90;;;;;;5079737;28;20039;-64
2022/03/28 08:13:37;;;;;;;26.60;13.25;;;10.70;99.90;;;;;;5062451;28;20380;-65
2022/03/28 08:16:04;;;;;;;27.85;13.30;;;10.70;99.90;;;;;;5078193;28;20071;-64
2022/03/28 08:18:30;;;;;;;21.23;13.13;;;10.90;99.90;;;;;;5061476;28;20052;-65
2022/03/28 08:20:57;;;;;;;26.08;13.85;;;11.10;99.90;;;;;;5079373;28;20037;-64
2022/03/28 08:23:23;;;;;;;29.65;15.05;;;11.20;99.90;;;;;;5079334;28;20040;-64
2022/03/28 08:25:50;;;;;;;26.80;14.02;;;11.40;99.90;;;;;;5045391;28;20033;-64
2022/03/28 08:28:16;;;;;;;27.92;14.48;;;11.40;99.90;;;;;;5078991;28;20118;-64
2022/03/28 08:30:43;;;;;;;24.83;14.25;;;11.50;99.90;;;;;;5078867;28;20222;-64
2022/03/28 08:33:09;;;;;;;25.92;13.40;;;11.50;99.90;;;;;;5078873;28;20064;-64
2022/03/28 08:35:37;;;;;;;29.48;15.02;;;11.60;99.90;;;;;;5078484;28;20391;-66
2022/03/28 08:38:03;;;;;;;27.10;14.77;;;11.80;99.90;;;;;;5078810;28;20035;-66
2022/03/28 08:40:29;;;;;;;26.77;14.40;;;12.00;99.90;;;;;;5078788;28;20083;-65
2022/03/28 08:42:55;;;;;;;33.45;15.07;;;12.10;99.90;;;;;;5078811;28;20420;-65
2022/03/28 08:45:21;;;;;;;33.85;15.95;;;12.30;99.90;;;;;;5028474;28;20134;-65
2022/03/28 08:47:49;;;;;;;25.83;14.43;;;12.30;99.90;;;;;;5078058;28;20355;-64
2022/03/28 08:50:16;;;;;;;28.08;15.35;;;12.50;99.90;;;;;;5077895;28;20044;-64
2022/03/28 08:52:43;;;;;;;28.42;15.40;;;12.40;99.90;;;;;;5078482;28;20095;-64
2022/03/28 08:55:14;;;;;;;29.83;14.30;;;12.50;99.90;;;;;;5078175;28;20296;-64
2022/03/28 08:57:40;;;;;;;29.15;15.10;;;12.20;99.90;;;;;;5078444;28;20025;-66
2022/03/28 09:00:09;;;;;;;28.52;14.18;;;12.20;99.90;;;;;;5078468;28;20082;-65
2022/03/28 09:02:50;;;;;;;29.58;16.10;;;12.20;99.90;;;;;;5077538;28;20024;-65
2022/03/28 09:05:18;;;;;;;27.65;16.13;;;12.30;99.90;;;;;;5078256;28;20041;-64
2022/03/28 09:07:46;;;;;;;30.98;14.93;;;12.40;99.90;;;;;;5078265;28;20297;-65
2022/03/28 09:10:17;;;;;;;29.92;16.10;;;12.40;99.90;;;;;;5078213;28;20388;-63
2022/03/28 09:13:08;;;;;;;25.70;14.80;;;12.30;99.90;;;;;;5078166;28;20119;-64
2022/03/28 09:15:50;;;;;;;27.10;15.10;;;12.50;99.90;;;;;;5078023;28;20025;-64
2022/03/28 09:18:24;;;;;;;25.77;14.60;;;12.70;99.90;;;;;;5078019;28;20047;-65
2022/03/28 09:21:11;;;;;;;27.92;15.63;;;13.10;99.90;;;;;;5078464;28;20024;-64
2022/03/28 09:23:48;;;;;;;28.08;15.63;;;13.50;99.90;;;;;;5078339;28;20035;-64
2022/03/28 09:26:18;;;;;;;28.95;16.27;;;13.50;99.90;;;;;;5061114;28;20392;-64
2022/03/28 09:29:02;;;;;;;35.90;17.52;;;13.80;99.90;;;;;;5076992;28;20112;-64
2022/03/28 09:31:32;;;;;;;30.08;15.85;;;14.20;99.90;;;;;;5077725;28;20270;-65
2022/03/28 09:34:09;;;;;;;30.25;17.27;;;14.10;99.90;;;;;;5077632;28;20407;-65
2022/03/28 09:36:50;;;;;;;30.98;16.88;;;14.20;99.90;;;;;;5077751;28;20131;-65
2022/03/28 09:39:25;;;;;;;32.03;16.90;;;14.10;99.90;;;;;;5077445;28;20047;-65
2022/03/28 09:42:10;;;;;;;28.08;17.08;;;14.40;99.90;;;;;;5077459;28;20033;-64
2022/03/28 09:44:43;;;;;;;29.13;16.98;;;14.70;99.90;;;;;;5077386;28;20067;-66
2022/03/28 09:47:12;;;;;;;31.23;17.35;;;15.10;99.90;;;;;;5076631;28;20142;-65
2022/03/28 09:49:41;;;;;;;25.90;16.50;;;15.20;99.90;;;;;;5077408;28;20048;-65
2022/03/28 09:52:13;;;;;;;32.33;17.67;;;15.30;99.90;;;;;;5076504;28;20036;-64
2022/03/28 09:54:53;;;;;;;29.93;16.70;;;15.60;99.90;;;;;;5077431;28;20073;-65
2022/03/28 09:57:45;;;;;;;36.38;17.73;;;15.70;99.90;;;;;;5076652;28;20025;-64
2022/03/28 10:00:14;;;;;;;31.88;17.23;;;15.90;99.90;;;;;;5077196;28;20121;-65
2022/03/28 10:02:40;;;;;;;28.80;17.73;;;16.00;99.90;;;;;;5075835;28;20047;-64
2022/03/28 10:05:07;;;;;;;28.38;17.15;;;16.10;99.90;;;;;;5077018;28;20079;-65
2022/03/28 10:07:33;;;;;;;31.73;17.73;;;16.20;99.90;;;;;;5077123;28;20028;-65
2022/03/28 10:10:00;;;;;;;27.55;16.00;;;16.40;99.90;;;;;;5077149;28;20301;-61
2022/03/28 10:12:26;;;;;;;31.70;18.50;;;16.40;99.90;;;;;;5077031;28;20078;-65
2022/03/28 10:14:57;;;;;;;32.78;18.83;;;16.60;99.90;;;;;;5076927;28;20121;-64
2022/03/28 10:17:31;;;;;;;30.08;16.98;;;16.90;99.90;;;;;;5077516;28;20135;-63
2022/03/28 10:19:58;;;;;;;27.17;17.45;;;17.10;99.90;;;;;;5077226;28;20299;-63
2022/03/28 10:22:33;;;;;;;30.00;18.40;;;17.30;99.90;;;;;;5076857;28;20296;-64
2022/03/28 10:25:04;;;;;;;27.23;16.27;;;17.40;99.90;;;;;;5077025;28;20107;-64
2022/03/28 10:27:33;;;;;;;32.42;18.30;;;17.60;99.90;;;;;;5059544;28;20036;-64
2022/03/28 10:30:20;;;;;;;28.70;16.42;;;17.70;99.90;;;;;;5059553;28;20304;-63
2022/03/28 10:32:46;;;;;;;29.65;16.63;;;17.70;99.90;;;;;;5076032;28;20032;-64
2022/03/28 10:35:13;;;;;;;27.00;16.13;;;17.60;99.90;;;;;;5076764;28;20307;-64
2022/03/28 10:37:45;;;;;;;34.17;18.00;;;17.70;99.90;;;;;;5076076;28;20028;-63
2022/03/28 10:40:23;;;;;;;23.95;13.85;;;18.30;99.90;;;;;;5075997;28;20088;-64
2022/03/28 10:43:12;;;;;;;20.40;11.95;;;19.20;99.90;;;;;;5076040;28;20044;-64
2022/03/28 10:45:53;;;;;;;18.35;11.52;;;20.10;99.90;;;;;;5075897;28;20047;-64
2022/03/28 10:48:41;;;;;;;23.13;13.27;;;21.00;99.90;;;;;;5076710;28;20056;-65
2022/03/28 10:51:13;;;;;;;21.17;12.75;;;21.80;99.90;;;;;;5076660;28;20293;-64
2022/03/28 10:53:47;;;;;;;28.70;13.02;;;22.50;99.90;;;;;;5076598;28;20115;-63
2022/03/28 10:56:20;;;;;;;16.45;8.95;;;23.00;97.40;;;;;;5076955;28;20075;-64
2022/03/28 10:58:53;;;;;;;17.13;10.50;;;23.70;93.60;;;;;;5076522;28;20037;-65
2022/03/28 11:01:31;;;;;;;24.35;14.23;;;23.60;92.60;;;;;;5076974;28;20056;-65
2022/03/28 11:04:05;;;;;;;27.38;13.70;;;24.00;92.60;;;;;;5076501;28;20046;-64
2022/03/28 11:06:53;;;;;;;19.65;10.73;;;24.60;91.30;;;;;;5076398;28;20058;-63
2022/03/28 11:09:56;;;;;;;16.40;10.27;;;25.20;85.30;;;;;;5076363;28;20043;-63
2022/03/28 11:12:32;;;;;;;20.17;11.98;;;25.10;84.50;;;;;;5076430;28;20082;-64
2022/03/28 11:15:19;;;;;;;20.13;13.15;;;25.60;82.90;;;;;;5076605;28;20043;-63
2022/03/28 11:17:57;;;;;;;22.80;12.23;;;26.10;80.30;;;;;;5080007;28;20334;-63
2022/03/28 11:20:25;;;;;;;15.45;10.52;;;26.00;76.90;;;;;;5079718;28;20412;-64
2022/03/28 11:23:06;;;;;;;20.48;11.75;;;26.10;75.70;;;;;;5079417;28;20020;-63
2022/03/28 11:25:55;;;;;;;20.80;11.27;;;26.30;74.50;;;;;;5079307;28;20086;-64
2022/03/28 11:28:27;;;;;;;21.00;12.05;;;26.30;73.60;;;;;;5080098;28;20269;-63
2022/03/28 11:31:08;;;;;;;16.17;11.30;;;26.40;74.20;;;;;;5080273;28;20352;-63
2022/03/28 11:33:43;;;;;;;21.52;11.02;;;27.00;70.40;;;;;;5079835;28;20330;-64
2022/03/28 11:36:11;;;;;;;16.42;9.43;;;27.50;67.10;;;;;;5079768;28;20411;-64
2022/03/28 11:38:51;;;;;;;19.52;10.50;;;27.70;65.90;;;;;;5079800;28;20028;-63
2022/03/28 11:41:20;;;;;;;16.17;10.82;;;27.80;63.10;;;;;;5079778;28;20039;-64
2022/03/28 11:43:52;;;;;;;18.83;10.50;;;28.10;63.00;;;;;;5079007;28;20085;-64
2022/03/28 11:46:25;;;;;;;14.50;9.27;;;28.30;61.20;;;;;;5079664;28;20044;-65
2022/03/28 11:48:54;;;;;;;18.33;10.00;;;28.00;60.20;;;;;;5079911;28;20033;-65
2022/03/28 11:51:21;;;;;;;16.95;10.90;;;27.90;62.10;;;;;;5079415;28;20024;-64
2022/03/28 11:53:47;;;;;;;22.15;12.07;;;28.30;61.30;;;;;;5079362;28;20153;-65
2022/03/28 11:56:27;;;;;;;18.42;9.60;;;28.20;60.70;;;;;;5079290;28;20048;-65
2022/03/28 11:59:07;;;;;;;13.48;10.38;;;28.70;58.60;;;;;;5078795;28;20365;-64
2022/03/28 12:01:35;;;;;;;17.02;11.45;;;28.50;59.70;;;;;;5079814;28;20112;-65
2022/03/28 12:04:02;;;;;;;20.27;11.48;;;28.70;60.20;;;;;;5078602;28;20048;-64
2022/03/28 12:06:36;;;;;;;17.48;10.32;;;29.10;59.60;;;;;;5079714;28;20066;-65
2022/03/28 12:09:06;;;;;;;15.10;11.38;;;29.40;58.30;;;;;;5079795;28;20056;-64
2022/03/28 12:11:32;;;;;;;18.77;11.38;;;29.60;57.00;;;;;;5079234;28;20040;-64
2022/03/28 12:13:58;;;;;;;14.65;10.20;;;29.50;57.40;;;;;;5078415;28;20411;-64
2022/03/28 12:16:24;;;;;;;16.85;10.30;;;29.10;57.50;;;;;;5078717;28;20040;-64
2022/03/28 12:18:53;;;;;;;15.27;11.75;;;29.10;57.40;;;;;;5079156;28;20043;-64
2022/03/28 12:21:20;;;;;;;14.93;10.55;;;27.40;59.60;;;;;;5079163;28;20028;-63
2022/03/28 12:23:46;;;;;;;15.27;9.57;;;27.60;60.70;;;;;;5079183;28;20292;-63
2022/03/28 12:26:13;;;;;;;16.75;11.18;;;28.10;60.30;;;;;;5079072;28;20032;-63
2022/03/28 12:28:43;;;;;;;14.48;10.23;;;28.00;59.90;;;;;;5079062;28;20025;-64
2022/03/28 12:31:09;;;;;;;17.73;10.77;;;28.90;59.30;;;;;;5080111;28;20353;-64
2022/03/28 12:33:38;;;;;;;17.02;11.15;;;29.80;57.50;;;;;;5079016;28;20106;-63
2022/03/28 12:36:22;;;;;;;16.85;11.00;;;30.20;56.10;;;;;;5078848;28;20032;-64
2022/03/28 12:39:06;;;;;;;17.30;9.57;;;30.00;56.30;;;;;;5078150;28;20033;-66
2022/03/28 12:41:46;;;;;;;17.88;10.75;;;29.40;57.00;;;;;;5079125;28;20400;-64
2022/03/28 12:44:14;;;;;;;15.23;10.52;;;29.80;56.50;;;;;;5079955;28;20421;-65
2022/03/28 12:46:41;;;;;;;17.23;11.93;;;30.30;56.00;;;;;;5078754;28;20040;-64
2022/03/28 12:49:14;;;;;;;19.30;11.70;;;31.20;54.40;;;;;;5077931;28;20024;-64